sensor_id;sensor_type;location;lat;lon;timestamp;temperature;humidity
6752;DHT22;3413;47.680;9.166;2023-08-07T00:02:01;17.00;75.50
6752;DHT22;3413;47.680;9.166;2023-08-07T00:07:03;17.00;75.40
6752;DHT22;3413;47.680;9.166;2023-08-07T00:12:05;17.00;75.30
6752;DHT22;3413;47.680;9.166;2023-08-07T00:17:07;17.00;75.30
6752;DHT22;3413;47.680;9.166;2023-08-07T00:22:10;16.90;75.30
6752;DHT22;3413;47.680;9.166;2023-08-07T00:27:12;16.90;75.40
6752;DHT22;3413;47.680;9.166;2023-08-07T00:32:14;16.80;75.40
6752;DHT22;3413;47.680;9.166;2023-08-07T00:37:16;16.80;75.40
6752;DHT22;3413;47.680;9.166;2023-08-07T00:42:18;16.80;75.50
6752;DHT22;3413;47.680;9.166;2023-08-07T00:47:20;16.70;75.50
6752;DHT22;3413;47.680;9.166;2023-08-07T00:52:22;16.80;75.60
6752;DHT22;3413;47.680;9.166;2023-08-07T00:57:24;16.90;75.50
6752;DHT22;3413;47.680;9.166;2023-08-07T01:02:27;16.90;75.60
6752;DHT22;3413;47.680;9.166;2023-08-07T01:07:29;16.90;75.40
6752;DHT22;3413;47.680;9.166;2023-08-07T01:12:38;16.90;75.50
6752;DHT22;3413;47.680;9.166;2023-08-07T01:17:44;16.80;75.60
6752;DHT22;3413;47.680;9.166;2023-08-07T01:22:46;16.80;75.60
6752;DHT22;3413;47.680;9.166;2023-08-07T01:28:41;16.90;75.60
6752;DHT22;3413;47.680;9.166;2023-08-07T01:34:01;16.90;75.70
6752;DHT22;3413;47.680;9.166;2023-08-07T01:39:04;16.80;75.70
6752;DHT22;3413;47.680;9.166;2023-08-07T01:44:08;16.80;75.60
6752;DHT22;3413;47.680;9.166;2023-08-07T01:49:10;16.70;75.50
6752;DHT22;3413;47.680;9.166;2023-08-07T01:54:12;16.60;75.50
6752;DHT22;3413;47.680;9.166;2023-08-07T01:59:14;16.60;75.50
6752;DHT22;3413;47.680;9.166;2023-08-07T02:04:17;16.60;76.20
6752;DHT22;3413;47.680;9.166;2023-08-07T02:09:19;16.60;76.30
6752;DHT22;3413;47.680;9.166;2023-08-07T02:14:21;16.50;75.50
6752;DHT22;3413;47.680;9.166;2023-08-07T02:19:23;16.40;75.40
6752;DHT22;3413;47.680;9.166;2023-08-07T02:24:25;16.50;75.60
6752;DHT22;3413;47.680;9.166;2023-08-07T02:29:27;16.50;75.50
6752;DHT22;3413;47.680;9.166;2023-08-07T02:34:30;16.40;75.40
6752;DHT22;3413;47.680;9.166;2023-08-07T02:39:32;16.40;75.40
6752;DHT22;3413;47.680;9.166;2023-08-07T02:44:34;16.40;75.40
6752;DHT22;3413;47.680;9.166;2023-08-07T02:49:36;16.40;75.40
6752;DHT22;3413;47.680;9.166;2023-08-07T02:54:38;16.40;75.50
6752;DHT22;3413;47.680;9.166;2023-08-07T02:59:40;16.40;75.50
6752;DHT22;3413;47.680;9.166;2023-08-07T03:04:42;16.30;75.50
6752;DHT22;3413;47.680;9.166;2023-08-07T03:09:48;16.30;75.60
6752;DHT22;3413;47.680;9.166;2023-08-07T03:14:50;16.20;75.60
6752;DHT22;3413;47.680;9.166;2023-08-07T03:19:52;16.20;75.40
6752;DHT22;3413;47.680;9.166;2023-08-07T03:24:54;16.30;76.00
6752;DHT22;3413;47.680;9.166;2023-08-07T03:29:56;16.20;75.30
6752;DHT22;3413;47.680;9.166;2023-08-07T03:35:02;16.20;75.40
6752;DHT22;3413;47.680;9.166;2023-08-07T03:40:04;16.20;75.50
6752;DHT22;3413;47.680;9.166;2023-08-07T03:45:07;16.20;75.60
6752;DHT22;3413;47.680;9.166;2023-08-07T03:50:10;16.30;75.70
6752;DHT22;3413;47.680;9.166;2023-08-07T03:55:12;16.30;75.70
6752;DHT22;3413;47.680;9.166;2023-08-07T04:00:14;16.20;75.70
6752;DHT22;3413;47.680;9.166;2023-08-07T04:11:07;16.10;75.70
6752;DHT22;3413;47.680;9.166;2023-08-07T04:16:12;16.20;75.70
6752;DHT22;3413;47.680;9.166;2023-08-07T04:21:17;16.20;75.60
6752;DHT22;3413;47.680;9.166;2023-08-07T04:32:00;16.10;75.90
6752;DHT22;3413;47.680;9.166;2023-08-07T04:37:05;16.10;76.00
6752;DHT22;3413;47.680;9.166;2023-08-07T04:42:10;16.10;75.80
6752;DHT22;3413;47.680;9.166;2023-08-07T04:47:14;16.20;76.00
6752;DHT22;3413;47.680;9.166;2023-08-07T04:52:22;16.20;76.00
6752;DHT22;3413;47.680;9.166;2023-08-07T04:57:29;16.30;76.10
6752;DHT22;3413;47.680;9.166;2023-08-07T05:02:34;16.40;76.10
6752;DHT22;3413;47.680;9.166;2023-08-07T05:07:43;16.40;76.10
6752;DHT22;3413;47.680;9.166;2023-08-07T05:12:48;16.30;76.20
6752;DHT22;3413;47.680;9.166;2023-08-07T05:17:54;16.30;76.20
6752;DHT22;3413;47.680;9.166;2023-08-07T05:22:58;16.30;76.00
6752;DHT22;3413;47.680;9.166;2023-08-07T05:28:01;16.30;76.20
6752;DHT22;3413;47.680;9.166;2023-08-07T05:33:08;16.30;76.30
6752;DHT22;3413;47.680;9.166;2023-08-07T05:49:16;16.40;77.20
6752;DHT22;3413;47.680;9.166;2023-08-07T05:54:19;16.40;76.30
6752;DHT22;3413;47.680;9.166;2023-08-07T05:59:22;16.30;76.20
6752;DHT22;3413;47.680;9.166;2023-08-07T06:04:26;16.40;76.50
6752;DHT22;3413;47.680;9.166;2023-08-07T06:09:30;16.40;76.40
6752;DHT22;3413;47.680;9.166;2023-08-07T06:14:37;16.40;76.30
6752;DHT22;3413;47.680;9.166;2023-08-07T06:19:40;16.40;76.50
6752;DHT22;3413;47.680;9.166;2023-08-07T06:24:46;16.40;76.50
6752;DHT22;3413;47.680;9.166;2023-08-07T06:29:52;16.30;76.50
6752;DHT22;3413;47.680;9.166;2023-08-07T06:34:54;16.40;76.60
6752;DHT22;3413;47.680;9.166;2023-08-07T06:39:58;16.50;76.80
6752;DHT22;3413;47.680;9.166;2023-08-07T06:45:01;16.60;76.80
6752;DHT22;3413;47.680;9.166;2023-08-07T06:50:04;16.50;76.70
6752;DHT22;3413;47.680;9.166;2023-08-07T06:55:07;16.60;76.80
6752;DHT22;3413;47.680;9.166;2023-08-07T07:00:10;16.60;76.80
6752;DHT22;3413;47.680;9.166;2023-08-07T07:05:13;16.60;76.90
6752;DHT22;3413;47.680;9.166;2023-08-07T07:10:16;16.60;76.80
6752;DHT22;3413;47.680;9.166;2023-08-07T07:15:19;16.60;76.70
6752;DHT22;3413;47.680;9.166;2023-08-07T07:20:22;16.70;76.90
6752;DHT22;3413;47.680;9.166;2023-08-07T07:25:29;16.70;76.80
6752;DHT22;3413;47.680;9.166;2023-08-07T07:30:34;16.60;77.00
6752;DHT22;3413;47.680;9.166;2023-08-07T07:35:40;16.70;76.80
6752;DHT22;3413;47.680;9.166;2023-08-07T07:40:46;16.80;77.00
6752;DHT22;3413;47.680;9.166;2023-08-07T07:45:50;16.70;76.90
6752;DHT22;3413;47.680;9.166;2023-08-07T07:50:59;16.80;77.00
6752;DHT22;3413;47.680;9.166;2023-08-07T07:56:03;16.90;77.30
6752;DHT22;3413;47.680;9.166;2023-08-07T08:01:07;17.10;77.30
6752;DHT22;3413;47.680;9.166;2023-08-07T08:06:14;17.30;77.50
6752;DHT22;3413;47.680;9.166;2023-08-07T08:11:17;17.40;77.40
6752;DHT22;3413;47.680;9.166;2023-08-07T08:21:39;17.80;77.60
6752;DHT22;3413;47.680;9.166;2023-08-07T08:32:09;18.20;77.80
6752;DHT22;3413;47.680;9.166;2023-08-07T08:37:21;18.40;78.40
6752;DHT22;3413;47.680;9.166;2023-08-07T08:42:46;18.50;77.80
6752;DHT22;3413;47.680;9.166;2023-08-07T09:07:01;19.10;78.00
6752;DHT22;3413;47.680;9.166;2023-08-07T09:12:03;19.20;77.90
6752;DHT22;3413;47.680;9.166;2023-08-07T09:17:06;19.30;77.90
6752;DHT22;3413;47.680;9.166;2023-08-07T09:22:08;19.60;78.00
6752;DHT22;3413;47.680;9.166;2023-08-07T09:27:10;19.70;77.90
6752;DHT22;3413;47.680;9.166;2023-08-07T09:32:13;19.70;77.70
6752;DHT22;3413;47.680;9.166;2023-08-07T09:37:15;19.60;77.60
6752;DHT22;3413;47.680;9.166;2023-08-07T09:42:17;19.70;77.90
6752;DHT22;3413;47.680;9.166;2023-08-07T09:47:19;19.80;78.00
6752;DHT22;3413;47.680;9.166;2023-08-07T09:52:21;19.90;77.90
6752;DHT22;3413;47.680;9.166;2023-08-07T09:57:24;19.80;77.90
6752;DHT22;3413;47.680;9.166;2023-08-07T10:02:26;19.60;77.90
6752;DHT22;3413;47.680;9.166;2023-08-07T10:07:28;19.40;78.00
6752;DHT22;3413;47.680;9.166;2023-08-07T10:12:31;19.00;77.80
6752;DHT22;3413;47.680;9.166;2023-08-07T10:17:33;18.80;77.70
6752;DHT22;3413;47.680;9.166;2023-08-07T10:22:38;18.50;77.70
6752;DHT22;3413;47.680;9.166;2023-08-07T10:27:41;18.20;77.50
6752;DHT22;3413;47.680;9.166;2023-08-07T10:32:44;17.90;77.60
6752;DHT22;3413;47.680;9.166;2023-08-07T10:37:47;17.90;77.80
6752;DHT22;3413;47.680;9.166;2023-08-07T10:42:58;18.00;78.00
6752;DHT22;3413;47.680;9.166;2023-08-07T10:48:17;18.30;78.50
6752;DHT22;3413;47.680;9.166;2023-08-07T10:53:27;18.40;78.50
6752;DHT22;3413;47.680;9.166;2023-08-07T10:58:31;18.30;78.40
6752;DHT22;3413;47.680;9.166;2023-08-07T11:03:35;18.30;78.60
6752;DHT22;3413;47.680;9.166;2023-08-07T11:08:38;18.50;78.90
6752;DHT22;3413;47.680;9.166;2023-08-07T11:13:40;18.70;79.20
6752;DHT22;3413;47.680;9.166;2023-08-07T11:18:42;18.90;79.00
6752;DHT22;3413;47.680;9.166;2023-08-07T11:23:44;18.90;79.30
6752;DHT22;3413;47.680;9.166;2023-08-07T11:28:48;19.20;79.40
6752;DHT22;3413;47.680;9.166;2023-08-07T11:33:51;19.50;79.50
6752;DHT22;3413;47.680;9.166;2023-08-07T11:38:53;19.80;79.40
6752;DHT22;3413;47.680;9.166;2023-08-07T11:43:55;19.80;79.00
6752;DHT22;3413;47.680;9.166;2023-08-07T11:48:57;19.90;79.10
6752;DHT22;3413;47.680;9.166;2023-08-07T11:53:59;20.00;78.70
6752;DHT22;3413;47.680;9.166;2023-08-07T11:59:02;20.00;79.20
6752;DHT22;3413;47.680;9.166;2023-08-07T12:09:06;20.40;79.00
6752;DHT22;3413;47.680;9.166;2023-08-07T12:14:15;20.70;79.00
6752;DHT22;3413;47.680;9.166;2023-08-07T12:19:18;20.90;79.00
6752;DHT22;3413;47.680;9.166;2023-08-07T12:24:20;20.90;78.70
6752;DHT22;3413;47.680;9.166;2023-08-07T12:29:24;21.00;78.90
6752;DHT22;3413;47.680;9.166;2023-08-07T12:34:30;21.10;79.00
6752;DHT22;3413;47.680;9.166;2023-08-07T12:39:35;21.10;79.20
6752;DHT22;3413;47.680;9.166;2023-08-07T12:44:40;21.20;79.40
6752;DHT22;3413;47.680;9.166;2023-08-07T12:49:42;21.20;79.70
6752;DHT22;3413;47.680;9.166;2023-08-07T12:54:46;21.50;80.00
6752;DHT22;3413;47.680;9.166;2023-08-07T12:59:48;21.80;80.00
6752;DHT22;3413;47.680;9.166;2023-08-07T13:04:50;22.10;79.80
6752;DHT22;3413;47.680;9.166;2023-08-07T13:09:52;22.10;79.10
6752;DHT22;3413;47.680;9.166;2023-08-07T13:14:54;22.10;78.70
6752;DHT22;3413;47.680;9.166;2023-08-07T13:19:56;22.00;78.60
6752;DHT22;3413;47.680;9.166;2023-08-07T13:24:58;21.90;78.20
6752;DHT22;3413;47.680;9.166;2023-08-07T13:30:01;21.70;77.80
6752;DHT22;3413;47.680;9.166;2023-08-07T13:35:04;21.30;77.60
6752;DHT22;3413;47.680;9.166;2023-08-07T13:40:07;21.30;77.80
6752;DHT22;3413;47.680;9.166;2023-08-07T13:45:09;21.10;77.70
6752;DHT22;3413;47.680;9.166;2023-08-07T13:50:11;21.10;77.80
6752;DHT22;3413;47.680;9.166;2023-08-07T13:55:14;21.30;77.90
6752;DHT22;3413;47.680;9.166;2023-08-07T14:00:16;21.40;78.00
6752;DHT22;3413;47.680;9.166;2023-08-07T14:05:19;21.70;78.40
6752;DHT22;3413;47.680;9.166;2023-08-07T14:10:21;22.00;78.00
6752;DHT22;3413;47.680;9.166;2023-08-07T14:15:23;22.30;78.00
6752;DHT22;3413;47.680;9.166;2023-08-07T14:20:26;22.40;77.60
6752;DHT22;3413;47.680;9.166;2023-08-07T14:25:28;22.30;77.20
6752;DHT22;3413;47.680;9.166;2023-08-07T14:30:30;22.00;77.00
6752;DHT22;3413;47.680;9.166;2023-08-07T14:35:32;21.80;77.30
6752;DHT22;3413;47.680;9.166;2023-08-07T14:40:34;21.70;77.40
6752;DHT22;3413;47.680;9.166;2023-08-07T14:45:40;21.60;77.50
6752;DHT22;3413;47.680;9.166;2023-08-07T14:50:42;21.70;78.10
6752;DHT22;3413;47.680;9.166;2023-08-07T14:55:44;21.80;78.30
6752;DHT22;3413;47.680;9.166;2023-08-07T15:00:47;21.90;78.40
6752;DHT22;3413;47.680;9.166;2023-08-07T15:05:48;22.00;78.60
6752;DHT22;3413;47.680;9.166;2023-08-07T15:10:53;22.10;78.90
6752;DHT22;3413;47.680;9.166;2023-08-07T15:15:55;22.20;79.00
6752;DHT22;3413;47.680;9.166;2023-08-07T15:20:59;22.40;79.10
6752;DHT22;3413;47.680;9.166;2023-08-07T15:26:02;22.60;78.90
6752;DHT22;3413;47.680;9.166;2023-08-07T15:31:04;22.70;78.90
6752;DHT22;3413;47.680;9.166;2023-08-07T15:36:06;22.80;78.10
6752;DHT22;3413;47.680;9.166;2023-08-07T15:41:10;22.60;77.90
6752;DHT22;3413;47.680;9.166;2023-08-07T15:46:12;22.50;77.60
6752;DHT22;3413;47.680;9.166;2023-08-07T15:51:14;22.20;77.20
6752;DHT22;3413;47.680;9.166;2023-08-07T15:56:16;21.90;77.00
6752;DHT22;3413;47.680;9.166;2023-08-07T16:01:18;21.50;76.80
6752;DHT22;3413;47.680;9.166;2023-08-07T16:06:20;20.90;77.00
6752;DHT22;3413;47.680;9.166;2023-08-07T16:11:23;20.50;76.90
6752;DHT22;3413;47.680;9.166;2023-08-07T16:16:25;20.30;76.80
6752;DHT22;3413;47.680;9.166;2023-08-07T16:21:27;20.20;76.70
6752;DHT22;3413;47.680;9.166;2023-08-07T16:26:29;20.20;76.80
6752;DHT22;3413;47.680;9.166;2023-08-07T16:31:31;20.40;77.10
6752;DHT22;3413;47.680;9.166;2023-08-07T16:36:33;20.60;77.30
6752;DHT22;3413;47.680;9.166;2023-08-07T16:41:34;20.70;77.40
6752;DHT22;3413;47.680;9.166;2023-08-07T16:46:36;20.90;77.60
6752;DHT22;3413;47.680;9.166;2023-08-07T16:51:38;21.00;77.60
6752;DHT22;3413;47.680;9.166;2023-08-07T16:56:40;20.80;77.70
6752;DHT22;3413;47.680;9.166;2023-08-07T17:01:42;20.80;77.70
6752;DHT22;3413;47.680;9.166;2023-08-07T17:06:44;20.80;77.40
6752;DHT22;3413;47.680;9.166;2023-08-07T17:11:46;20.80;77.30
6752;DHT22;3413;47.680;9.166;2023-08-07T17:16:48;20.70;77.30
6752;DHT22;3413;47.680;9.166;2023-08-07T17:21:50;20.70;77.40
6752;DHT22;3413;47.680;9.166;2023-08-07T17:26:52;20.70;77.30
6752;DHT22;3413;47.680;9.166;2023-08-07T17:31:54;20.50;77.50
6752;DHT22;3413;47.680;9.166;2023-08-07T17:36:59;20.60;77.50
6752;DHT22;3413;47.680;9.166;2023-08-07T17:42:02;20.60;77.50
6752;DHT22;3413;47.680;9.166;2023-08-07T17:47:04;20.60;77.60
6752;DHT22;3413;47.680;9.166;2023-08-07T17:52:06;20.60;77.50
6752;DHT22;3413;47.680;9.166;2023-08-07T17:57:08;20.50;77.20
6752;DHT22;3413;47.680;9.166;2023-08-07T18:02:10;20.40;77.10
6752;DHT22;3413;47.680;9.166;2023-08-07T18:07:12;20.40;76.90
6752;DHT22;3413;47.680;9.166;2023-08-07T18:12:16;20.40;76.60
6752;DHT22;3413;47.680;9.166;2023-08-07T18:17:18;20.20;76.50
6752;DHT22;3413;47.680;9.166;2023-08-07T18:22:20;20.10;76.70
6752;DHT22;3413;47.680;9.166;2023-08-07T18:27:22;20.00;76.60
6752;DHT22;3413;47.680;9.166;2023-08-07T18:32:24;20.00;76.60
6752;DHT22;3413;47.680;9.166;2023-08-07T18:37:26;20.00;76.40
6752;DHT22;3413;47.680;9.166;2023-08-07T18:42:28;20.00;76.40
6752;DHT22;3413;47.680;9.166;2023-08-07T18:47:30;19.90;76.30
6752;DHT22;3413;47.680;9.166;2023-08-07T18:52:32;19.90;76.40
6752;DHT22;3413;47.680;9.166;2023-08-07T18:57:34;19.80;76.30
6752;DHT22;3413;47.680;9.166;2023-08-07T19:02:36;19.90;76.40
6752;DHT22;3413;47.680;9.166;2023-08-07T19:07:40;19.90;76.50
6752;DHT22;3413;47.680;9.166;2023-08-07T19:12:42;19.90;76.50
6752;DHT22;3413;47.680;9.166;2023-08-07T19:17:44;19.90;76.50
6752;DHT22;3413;47.680;9.166;2023-08-07T19:22:46;19.80;76.50
6752;DHT22;3413;47.680;9.166;2023-08-07T19:27:48;19.80;76.60
6752;DHT22;3413;47.680;9.166;2023-08-07T19:32:50;19.70;76.50
6752;DHT22;3413;47.680;9.166;2023-08-07T19:37:52;19.70;76.50
6752;DHT22;3413;47.680;9.166;2023-08-07T19:42:54;19.50;76.50
6752;DHT22;3413;47.680;9.166;2023-08-07T19:47:56;19.60;76.60
6752;DHT22;3413;47.680;9.166;2023-08-07T19:53:00;19.50;76.40
6752;DHT22;3413;47.680;9.166;2023-08-07T19:58:03;19.50;76.30
6752;DHT22;3413;47.680;9.166;2023-08-07T20:03:06;19.40;76.30
6752;DHT22;3413;47.680;9.166;2023-08-07T20:08:09;19.40;76.40
6752;DHT22;3413;47.680;9.166;2023-08-07T20:13:11;19.30;76.30
6752;DHT22;3413;47.680;9.166;2023-08-07T20:18:13;19.30;76.10
6752;DHT22;3413;47.680;9.166;2023-08-07T20:23:15;19.20;76.00
6752;DHT22;3413;47.680;9.166;2023-08-07T20:28:17;19.20;76.10
6752;DHT22;3413;47.680;9.166;2023-08-07T20:33:19;19.10;76.00
6752;DHT22;3413;47.680;9.166;2023-08-07T20:38:21;19.10;76.10
6752;DHT22;3413;47.680;9.166;2023-08-07T20:43:23;19.10;76.20
6752;DHT22;3413;47.680;9.166;2023-08-07T20:48:25;19.10;76.30
6752;DHT22;3413;47.680;9.166;2023-08-07T20:53:27;19.00;76.30
6752;DHT22;3413;47.680;9.166;2023-08-07T20:58:29;18.90;76.30
6752;DHT22;3413;47.680;9.166;2023-08-07T21:03:35;18.90;76.40
6752;DHT22;3413;47.680;9.166;2023-08-07T21:08:37;18.90;76.50
6752;DHT22;3413;47.680;9.166;2023-08-07T21:13:39;18.80;76.40
6752;DHT22;3413;47.680;9.166;2023-08-07T21:18:41;18.80;76.60
6752;DHT22;3413;47.680;9.166;2023-08-07T21:23:43;18.80;76.60
6752;DHT22;3413;47.680;9.166;2023-08-07T21:28:46;18.80;76.70
6752;DHT22;3413;47.680;9.166;2023-08-07T21:33:48;18.70;76.70
6752;DHT22;3413;47.680;9.166;2023-08-07T21:38:50;18.60;76.70
6752;DHT22;3413;47.680;9.166;2023-08-07T21:43:52;18.60;76.70
6752;DHT22;3413;47.680;9.166;2023-08-07T21:48:54;18.70;77.30
6752;DHT22;3413;47.680;9.166;2023-08-07T21:53:56;18.80;76.60
6752;DHT22;3413;47.680;9.166;2023-08-07T21:58:58;18.90;76.60
6752;DHT22;3413;47.680;9.166;2023-08-07T22:04:00;18.90;77.30
6752;DHT22;3413;47.680;9.166;2023-08-07T22:09:02;18.90;76.60
6752;DHT22;3413;47.680;9.166;2023-08-07T22:14:04;18.90;76.60
6752;DHT22;3413;47.680;9.166;2023-08-07T22:19:06;18.80;76.50
6752;DHT22;3413;47.680;9.166;2023-08-07T22:24:08;18.80;76.50
6752;DHT22;3413;47.680;9.166;2023-08-07T22:29:10;18.70;76.50
6752;DHT22;3413;47.680;9.166;2023-08-07T22:34:13;18.60;76.50
6752;DHT22;3413;47.680;9.166;2023-08-07T22:39:15;18.40;76.40
6752;DHT22;3413;47.680;9.166;2023-08-07T22:44:17;18.30;76.40
6752;DHT22;3413;47.680;9.166;2023-08-07T22:49:19;18.30;76.40
6752;DHT22;3413;47.680;9.166;2023-08-07T22:54:24;18.10;76.30
6752;DHT22;3413;47.680;9.166;2023-08-07T22:59:26;18.00;76.30
6752;DHT22;3413;47.680;9.166;2023-08-07T23:04:28;17.90;76.30
6752;DHT22;3413;47.680;9.166;2023-08-07T23:09:30;17.80;76.20
6752;DHT22;3413;47.680;9.166;2023-08-07T23:14:32;17.60;76.20
6752;DHT22;3413;47.680;9.166;2023-08-07T23:19:34;17.50;76.20
6752;DHT22;3413;47.680;9.166;2023-08-07T23:24:36;17.40;76.20
6752;DHT22;3413;47.680;9.166;2023-08-07T23:29:40;17.30;76.30
6752;DHT22;3413;47.680;9.166;2023-08-07T23:34:42;17.20;76.20
6752;DHT22;3413;47.680;9.166;2023-08-07T23:39:44;17.10;76.10
6752;DHT22;3413;47.680;9.166;2023-08-07T23:44:46;17.00;76.20
6752;DHT22;3413;47.680;9.166;2023-08-07T23:49:48;17.00;76.20
6752;DHT22;3413;47.680;9.166;2023-08-07T23:54:50;16.90;76.10
6752;DHT22;3413;47.680;9.166;2023-08-07T23:59:52;16.80;76.10
